createdAt,value
2022-12-24T00:00:57.425Z,2.40
2022-12-24T00:03:21.903Z,2.40
2022-12-24T00:05:46.413Z,2.40
2022-12-24T00:08:10.715Z,2.40
2022-12-24T00:10:35.293Z,2.40
2022-12-24T00:12:59.638Z,2.40
2022-12-24T00:15:24.053Z,2.40
2022-12-24T00:17:49.793Z,2.30
2022-12-24T00:20:14.772Z,2.20
2022-12-24T00:22:39.227Z,2.20
2022-12-24T00:25:03.647Z,2.20
2022-12-24T00:27:28.006Z,2.20
2022-12-24T00:29:52.555Z,2.20
2022-12-24T00:32:16.844Z,2.20
2022-12-24T00:34:42.585Z,2.20
2022-12-24T00:37:08.244Z,2.10
2022-12-24T00:39:32.680Z,2.10
2022-12-24T00:41:56.961Z,2.10
2022-12-24T00:44:21.463Z,2.10
2022-12-24T00:46:45.816Z,2.10
2022-12-24T00:49:12.226Z,2.10
2022-12-24T00:51:38.743Z,2.10
2022-12-24T00:54:03.777Z,2.10
2022-12-24T00:56:28.660Z,2.20
2022-12-24T00:58:53.702Z,2.20
2022-12-24T01:01:18.972Z,2.20
2022-12-24T01:03:43.727Z,2.20
2022-12-24T01:06:10.768Z,2.20
2022-12-24T01:08:36.992Z,2.10
2022-12-24T01:11:02.109Z,2.10
2022-12-24T01:13:27.118Z,2.10
2022-12-24T01:15:52.243Z,2.20
2022-12-24T01:18:16.811Z,2.10
2022-12-24T01:20:41.211Z,2.00
2022-12-24T01:23:05.762Z,2.10
2022-12-24T01:25:31.479Z,2.10
2022-12-24T01:27:55.973Z,2.10
2022-12-24T01:30:20.534Z,2.10
2022-12-24T01:32:45.029Z,2.10
2022-12-24T01:35:10.459Z,2.20
2022-12-24T01:37:34.853Z,2.20
2022-12-24T01:40:12.967Z,2.20
2022-12-24T01:42:57.833Z,2.20
2022-12-24T01:45:52.782Z,2.20
2022-12-24T01:48:35.686Z,2.30
2022-12-24T01:51:03.967Z,2.30
2022-12-24T01:53:28.688Z,2.30
2022-12-24T01:55:54.473Z,2.20
2022-12-24T01:58:22.780Z,2.20
2022-12-24T02:00:47.171Z,2.20
2022-12-24T02:03:11.830Z,2.20
2022-12-24T02:05:40.313Z,2.20
2022-12-24T02:08:07.274Z,2.30
2022-12-24T02:10:32.239Z,2.20
2022-12-24T02:12:58.419Z,2.20
2022-12-24T02:15:57.586Z,2.20
2022-12-24T02:18:27.890Z,2.20
2022-12-24T02:21:33.377Z,2.20
2022-12-24T02:24:38.384Z,2.20
2022-12-24T02:27:18.661Z,2.20
2022-12-24T02:30:23.041Z,2.30
2022-12-24T02:33:10.830Z,2.30
2022-12-24T02:35:42.100Z,2.30
2022-12-24T02:38:13.304Z,2.30
2022-12-24T02:40:42.053Z,2.40
2022-12-24T02:43:11.870Z,2.30
2022-12-24T02:45:41.346Z,2.30
2022-12-24T02:48:06.518Z,2.30
2022-12-24T02:50:31.046Z,2.40
2022-12-24T02:52:55.611Z,2.40
2022-12-24T02:55:24.392Z,2.50
2022-12-24T02:58:08.581Z,2.30
2022-12-24T03:00:42.234Z,2.20
2022-12-24T03:03:28.501Z,2.20
2022-12-24T03:05:57.599Z,2.20
2022-12-24T03:08:33.902Z,2.20
2022-12-24T03:11:02.538Z,2.10
2022-12-24T03:13:29.176Z,2.10
2022-12-24T03:15:55.429Z,2.10
2022-12-24T03:18:24.856Z,2.10
2022-12-24T03:20:57.786Z,2.00
2022-12-24T03:23:22.514Z,2.00
2022-12-24T03:25:47.412Z,2.00
2022-12-24T03:28:15.154Z,2.10
2022-12-24T03:30:41.440Z,2.10
2022-12-24T03:33:07.600Z,2.10
2022-12-24T03:35:32.052Z,2.10
2022-12-24T03:37:56.771Z,2.00
2022-12-24T03:40:21.218Z,1.90
2022-12-24T03:42:45.559Z,1.90
2022-12-24T03:45:11.134Z,1.90
2022-12-24T03:47:35.569Z,1.90
2022-12-24T03:50:01.393Z,1.90
2022-12-24T03:52:27.279Z,2.00
2022-12-24T03:54:51.719Z,2.00
2022-12-24T03:57:16.186Z,2.00
2022-12-24T03:59:40.621Z,2.10
2022-12-24T04:02:05.162Z,2.10
2022-12-24T04:04:29.694Z,2.20
2022-12-24T04:06:55.409Z,2.10
2022-12-24T04:09:19.841Z,2.10
2022-12-24T04:11:44.129Z,2.10
2022-12-24T04:14:08.609Z,2.10
2022-12-24T04:16:33.110Z,2.10
2022-12-24T04:18:57.592Z,2.20
2022-12-24T04:21:22.137Z,2.20
2022-12-24T04:23:48.383Z,2.20
2022-12-24T04:26:14.262Z,2.20
2022-12-24T04:28:39.533Z,2.20
2022-12-24T04:31:06.061Z,2.20
2022-12-24T04:33:30.646Z,2.20
2022-12-24T04:35:55.109Z,2.20
2022-12-24T04:38:19.529Z,2.20
2022-12-24T04:40:45.349Z,2.20
2022-12-24T04:43:09.812Z,2.20
2022-12-24T04:45:34.372Z,2.20
2022-12-24T04:47:58.779Z,2.20
2022-12-24T04:50:23.055Z,2.10
2022-12-24T04:52:47.434Z,2.20
2022-12-24T04:55:12.061Z,2.10
2022-12-24T04:57:38.156Z,2.10
2022-12-24T05:00:02.609Z,2.00
2022-12-24T05:02:27.943Z,1.90
2022-12-24T05:04:52.439Z,1.90
2022-12-24T05:07:17.009Z,1.90
2022-12-24T05:09:41.464Z,1.90
2022-12-24T05:12:07.100Z,1.90
2022-12-24T05:14:32.868Z,1.90
2022-12-24T05:16:57.444Z,2.00
2022-12-24T05:19:21.841Z,2.00
2022-12-24T05:22:06.343Z,2.10
2022-12-24T05:24:48.345Z,2.00
2022-12-24T05:27:12.685Z,2.10
2022-12-24T05:29:38.607Z,2.00
2022-12-24T05:32:03.039Z,2.00
2022-12-24T05:34:27.616Z,2.00
2022-12-24T05:36:52.078Z,2.10
2022-12-24T05:39:17.644Z,2.00
2022-12-24T05:41:42.057Z,2.00
2022-12-24T05:44:06.696Z,2.00
2022-12-24T05:46:32.572Z,2.00
2022-12-24T05:48:56.951Z,1.90
2022-12-24T05:51:23.127Z,2.00
2022-12-24T05:53:48.299Z,1.90
2022-12-24T05:56:15.777Z,1.90
2022-12-24T05:58:40.635Z,2.00
2022-12-24T06:01:06.270Z,2.10
2022-12-24T06:03:32.768Z,2.20
2022-12-24T06:06:01.960Z,2.40
2022-12-24T06:08:26.328Z,2.70
2022-12-24T06:10:57.080Z,3.00
2022-12-24T06:13:21.514Z,3.30
2022-12-24T06:15:45.861Z,3.70
2022-12-24T06:18:10.592Z,4.20
2022-12-24T06:20:36.302Z,4.50
2022-12-24T06:23:00.706Z,4.90
2022-12-24T06:25:25.002Z,5.20
2022-12-24T06:27:49.301Z,5.50
2022-12-24T06:30:14.245Z,5.80
2022-12-24T06:32:38.662Z,6.00
2022-12-24T06:35:03.438Z,5.80
2022-12-24T06:37:29.185Z,6.00
2022-12-24T06:39:53.657Z,6.20
2022-12-24T06:42:18.061Z,6.60
2022-12-24T06:44:42.382Z,6.70
2022-12-24T06:47:06.734Z,7.00
2022-12-24T06:49:31.214Z,7.10
2022-12-24T06:51:55.561Z,7.30
2022-12-24T06:54:21.372Z,7.50
2022-12-24T06:56:45.743Z,8.00
2022-12-24T06:59:10.192Z,7.90
2022-12-24T07:01:34.571Z,7.90
2022-12-24T07:03:59.270Z,8.10
2022-12-24T07:06:30.628Z,8.00
2022-12-24T07:08:55.707Z,8.00
2022-12-24T07:11:21.978Z,7.90
2022-12-24T07:13:47.228Z,7.90
2022-12-24T07:16:12.265Z,7.30
2022-12-24T07:18:36.984Z,7.30
2022-12-24T07:21:02.060Z,7.10
2022-12-24T07:23:27.034Z,7.00
2022-12-24T07:25:51.424Z,6.90
2022-12-24T07:28:18.113Z,7.10
2022-12-24T07:30:44.376Z,7.60
2022-12-24T07:33:09.304Z,8.10
2022-12-24T07:35:33.954Z,8.20
2022-12-24T07:37:58.391Z,8.40
2022-12-24T07:40:22.936Z,9.00
2022-12-24T07:42:47.629Z,8.60
2022-12-24T07:45:13.596Z,8.20
2022-12-24T07:47:38.092Z,7.70
2022-12-24T07:50:02.544Z,8.00
2022-12-24T07:52:27.213Z,8.30
2022-12-24T07:54:52.032Z,8.10
2022-12-24T07:57:16.756Z,8.20
2022-12-24T07:59:41.057Z,8.40
2022-12-24T08:02:17.955Z,8.60
2022-12-24T08:04:43.183Z,8.80
2022-12-24T08:07:08.331Z,8.60
2022-12-24T08:09:33.531Z,8.50
2022-12-24T08:11:58.030Z,8.80
2022-12-24T08:14:22.516Z,9.20
2022-12-24T08:16:46.980Z,9.30
2022-12-24T08:19:12.875Z,9.50
2022-12-24T08:21:37.315Z,9.40
2022-12-24T08:24:01.661Z,9.80
2022-12-24T08:26:26.006Z,10.10
2022-12-24T08:28:50.491Z,10.00
2022-12-24T08:31:16.058Z,10.00
2022-12-24T08:33:40.653Z,9.70
2022-12-24T08:36:07.155Z,9.70
2022-12-24T08:38:31.600Z,9.80
2022-12-24T08:40:56.554Z,10.00
2022-12-24T08:43:21.627Z,9.80
2022-12-24T08:45:46.808Z,9.80
2022-12-24T08:48:12.151Z,9.90
2022-12-24T08:50:37.187Z,10.10
2022-12-24T08:53:03.404Z,10.20
2022-12-24T08:55:27.908Z,10.30
2022-12-24T08:57:52.303Z,10.20
2022-12-24T09:00:17.429Z,10.30
2022-12-24T09:02:41.837Z,10.20
2022-12-24T09:05:07.001Z,10.60
2022-12-24T09:07:31.561Z,10.60
2022-12-24T09:09:57.350Z,10.40
2022-12-24T09:12:21.784Z,10.50
2022-12-24T09:14:46.221Z,10.40
2022-12-24T09:17:10.530Z,10.50
2022-12-24T09:19:35.047Z,10.50
2022-12-24T09:21:59.572Z,10.50
2022-12-24T09:24:24.032Z,10.50
2022-12-24T09:26:57.288Z,10.40
2022-12-24T09:29:22.093Z,10.30
2022-12-24T09:31:46.868Z,10.40
2022-12-24T09:34:11.705Z,10.50
2022-12-24T09:36:36.323Z,10.40
2022-12-24T09:39:00.681Z,10.50
2022-12-24T09:41:39.797Z,10.60
2022-12-24T09:44:28.642Z,10.50
2022-12-24T09:46:55.154Z,10.50
2022-12-24T09:49:23.754Z,10.50
2022-12-24T09:51:52.648Z,10.20
2022-12-24T09:54:21.685Z,9.90
2022-12-24T09:56:47.739Z,9.80
2022-12-24T09:59:16.488Z,9.60
2022-12-24T10:01:41.015Z,9.40
2022-12-24T10:04:11.185Z,9.20
2022-12-24T10:06:42.108Z,9.20
2022-12-24T10:09:14.184Z,9.10
2022-12-24T10:11:45.843Z,9.00
2022-12-24T10:14:24.156Z,8.90
2022-12-24T10:16:59.595Z,8.80
2022-12-24T10:19:34.121Z,8.70
2022-12-24T10:22:07.609Z,8.60
2022-12-24T10:24:37.663Z,8.60
2022-12-24T10:27:04.159Z,8.50
2022-12-24T10:29:31.938Z,8.50
2022-12-24T10:32:02.221Z,8.40
2022-12-24T10:34:32.607Z,8.40
2022-12-24T10:36:58.187Z,8.40
2022-12-24T10:39:24.472Z,8.30
2022-12-24T10:41:51.400Z,8.40
2022-12-24T10:44:18.785Z,8.30
2022-12-24T10:46:47.175Z,8.30
2022-12-24T10:49:16.167Z,8.30
2022-12-24T10:51:47.034Z,8.30
2022-12-24T10:54:19.506Z,8.40
2022-12-24T10:56:52.536Z,8.30
2022-12-24T10:59:28.905Z,8.20
2022-12-24T11:01:55.209Z,8.20
2022-12-24T11:04:22.041Z,8.20
2022-12-24T11:06:55.131Z,8.20
2022-12-24T11:09:23.822Z,8.20
2022-12-24T11:11:48.247Z,8.20
2022-12-24T11:14:17.267Z,8.20
2022-12-24T11:16:41.654Z,8.30
2022-12-24T11:19:17.980Z,8.20
2022-12-24T11:21:42.900Z,8.20
2022-12-24T11:24:15.003Z,8.20
2022-12-24T11:26:40.155Z,8.20
2022-12-24T11:29:17.624Z,8.10
2022-12-24T11:31:42.730Z,8.10
2022-12-24T11:34:28.898Z,8.10
2022-12-24T11:36:54.550Z,8.10
2022-12-24T11:39:22.592Z,8.10
2022-12-24T11:41:51.173Z,8.10
2022-12-24T11:44:16.163Z,8.10
2022-12-24T11:46:42.262Z,8.30
2022-12-24T11:49:26.145Z,8.40
2022-12-24T11:52:25.607Z,8.30
2022-12-24T11:55:16.947Z,8.30
2022-12-24T11:57:53.904Z,8.30
2022-12-24T12:00:18.967Z,8.30
2022-12-24T12:02:51.220Z,8.30
2022-12-24T12:05:20.752Z,8.30
2022-12-24T12:07:54.620Z,8.40
2022-12-24T12:10:26.979Z,8.30
2022-12-24T12:13:02.507Z,8.20
2022-12-24T12:15:30.437Z,8.30
2022-12-24T12:17:58.782Z,8.30
2022-12-24T12:20:26.879Z,8.30
2022-12-24T12:22:59.027Z,8.30
2022-12-24T12:25:27.859Z,8.20
2022-12-24T12:27:55.277Z,8.10
2022-12-24T12:30:21.985Z,8.10
2022-12-24T12:32:52.661Z,8.10
2022-12-24T12:35:26.161Z,8.00
2022-12-24T12:37:59.047Z,7.90
2022-12-24T12:40:27.941Z,8.00
2022-12-24T12:43:00.435Z,7.90
2022-12-24T12:45:38.272Z,7.80
2022-12-24T12:48:28.916Z,8.00
2022-12-24T12:50:59.745Z,8.00
2022-12-24T12:53:32.778Z,8.00
2022-12-24T12:56:07.160Z,7.90
2022-12-24T12:58:36.759Z,7.90
2022-12-24T13:01:08.992Z,7.90
2022-12-24T13:03:52.103Z,8.00
2022-12-24T13:06:53.866Z,7.90
2022-12-24T13:09:46.847Z,7.90
2022-12-24T13:12:29.425Z,7.90
2022-12-24T13:15:08.639Z,7.90
2022-12-24T13:18:03.086Z,7.90
2022-12-24T13:20:30.162Z,7.80
2022-12-24T13:23:00.672Z,7.80
2022-12-24T13:25:30.893Z,7.80
2022-12-24T13:27:55.728Z,7.80
2022-12-24T13:30:41.123Z,7.90
2022-12-24T13:33:06.462Z,7.80
2022-12-24T13:35:38.195Z,7.80
2022-12-24T13:38:42.928Z,7.70
2022-12-24T13:41:53.254Z,7.70
2022-12-24T13:44:35.188Z,7.70
2022-12-24T13:47:05.524Z,7.80
2022-12-24T13:49:34.557Z,7.80
2022-12-24T13:52:15.366Z,7.80
2022-12-24T13:54:45.161Z,7.70
2022-12-24T13:57:29.166Z,7.60
2022-12-24T14:00:00.667Z,7.50
2022-12-24T14:02:25.252Z,7.40
2022-12-24T14:04:52.513Z,7.40
2022-12-24T14:07:21.611Z,7.30
2022-12-24T14:09:52.341Z,7.30
2022-12-24T14:12:46.753Z,7.30
2022-12-24T14:15:48.668Z,7.30
2022-12-24T14:18:18.079Z,7.30
2022-12-24T14:20:42.711Z,7.20
2022-12-24T14:23:16.487Z,7.20
2022-12-24T14:25:43.802Z,7.20
2022-12-24T14:28:17.454Z,7.20
2022-12-24T14:30:41.944Z,7.20
2022-12-24T14:33:06.985Z,7.10
2022-12-24T14:35:37.803Z,7.10
2022-12-24T14:38:02.848Z,7.10
2022-12-24T14:40:29.907Z,7.20
2022-12-24T14:43:02.448Z,7.20
2022-12-24T14:45:33.596Z,7.30
2022-12-24T14:48:08.019Z,7.30
2022-12-24T14:50:46.492Z,7.40
2022-12-24T14:53:27.785Z,7.30
2022-12-24T14:55:53.302Z,7.40
2022-12-24T14:58:39.957Z,7.30
2022-12-24T15:01:20.363Z,7.30
2022-12-24T15:03:44.924Z,7.30
2022-12-24T15:06:14.127Z,7.10
2022-12-24T15:08:41.278Z,7.20
2022-12-24T15:11:08.704Z,7.10
2022-12-24T15:13:40.178Z,7.00
2022-12-24T15:16:06.747Z,6.90
2022-12-24T15:18:33.221Z,6.90
2022-12-24T15:21:04.631Z,6.90
2022-12-24T15:23:31.197Z,6.90
2022-12-24T15:26:08.747Z,6.90
2022-12-24T15:28:39.552Z,6.80
2022-12-24T15:31:09.528Z,6.70
2022-12-24T15:33:36.431Z,6.70
2022-12-24T15:36:00.624Z,6.60
2022-12-24T15:38:28.547Z,6.60
2022-12-24T15:40:52.918Z,6.50
2022-12-24T15:43:17.729Z,6.50
2022-12-24T15:45:48.523Z,6.60
2022-12-24T15:48:21.172Z,6.60
2022-12-24T15:50:47.032Z,6.70
2022-12-24T15:53:19.415Z,6.60
2022-12-24T15:56:02.591Z,6.60
2022-12-24T15:58:42.768Z,6.60
2022-12-24T16:01:28.442Z,6.60
2022-12-24T16:04:01.138Z,6.60
2022-12-24T16:06:27.666Z,6.70
2022-12-24T16:08:52.610Z,6.70
2022-12-24T16:11:20.203Z,6.70
2022-12-24T16:13:55.393Z,6.80
2022-12-24T16:16:23.401Z,6.90
2022-12-24T16:18:53.918Z,6.90
2022-12-24T16:21:22.386Z,6.80
2022-12-24T16:23:48.788Z,6.70
2022-12-24T16:26:13.216Z,6.60
2022-12-24T16:28:37.493Z,6.70
2022-12-24T16:31:02.069Z,6.70
2022-12-24T16:33:29.037Z,6.70
2022-12-24T16:35:53.640Z,6.70
2022-12-24T16:38:18.298Z,6.80
2022-12-24T16:40:43.113Z,6.70
2022-12-24T16:43:24.906Z,6.80
2022-12-24T16:45:50.188Z,6.80
2022-12-24T16:48:20.843Z,6.80
2022-12-24T16:50:46.623Z,6.80
2022-12-24T16:53:17.541Z,6.80
2022-12-24T16:55:42.207Z,6.70
2022-12-24T16:58:06.628Z,6.60
2022-12-24T17:00:31.038Z,6.60
2022-12-24T17:02:55.533Z,6.60
2022-12-24T17:05:23.746Z,6.60
2022-12-24T17:07:49.483Z,6.60
2022-12-24T17:10:15.054Z,6.70
2022-12-24T17:12:39.640Z,6.70
2022-12-24T17:15:04.111Z,6.80
2022-12-24T17:17:30.549Z,6.70
2022-12-24T17:19:56.086Z,6.80
2022-12-24T17:22:20.578Z,6.90
2022-12-24T17:24:46.552Z,6.90
2022-12-24T17:27:10.880Z,6.90
2022-12-24T17:29:35.562Z,7.00
2022-12-24T17:31:59.859Z,7.00
2022-12-24T17:34:24.237Z,7.00
2022-12-24T17:36:48.616Z,7.00
2022-12-24T17:39:13.044Z,6.90
2022-12-24T17:41:38.761Z,6.90
2022-12-24T17:44:04.868Z,6.90
2022-12-24T17:46:29.428Z,6.90
2022-12-24T17:48:54.136Z,6.80
2022-12-24T17:51:20.506Z,6.70
2022-12-24T17:53:45.146Z,6.70
2022-12-24T17:56:12.417Z,6.70
2022-12-24T17:58:38.296Z,6.70
2022-12-24T18:01:02.734Z,6.80
2022-12-24T18:03:27.359Z,6.80
2022-12-24T18:05:52.020Z,6.80
2022-12-24T18:08:17.032Z,6.80
2022-12-24T18:10:41.377Z,6.90
2022-12-24T18:13:06.328Z,7.00
2022-12-24T18:15:35.426Z,7.00
2022-12-24T18:17:59.902Z,7.00
2022-12-24T18:20:24.531Z,7.10
2022-12-24T18:22:49.490Z,7.00
2022-12-24T18:25:13.976Z,7.00
2022-12-24T18:27:38.498Z,7.00
2022-12-24T18:30:02.987Z,6.90
2022-12-24T18:32:29.046Z,7.00
2022-12-24T18:34:53.520Z,7.00
2022-12-24T18:37:17.935Z,7.00
2022-12-24T18:39:42.204Z,7.10
2022-12-24T18:42:08.129Z,7.10
2022-12-24T18:44:32.443Z,7.10
2022-12-24T18:46:57.110Z,7.10
2022-12-24T18:49:23.064Z,7.10
2022-12-24T18:51:47.591Z,7.10
2022-12-24T18:54:12.478Z,7.00
2022-12-24T18:56:36.834Z,7.00
2022-12-24T18:59:02.621Z,6.90
2022-12-24T19:01:28.917Z,7.00
2022-12-24T19:03:53.908Z,7.00
2022-12-24T19:06:20.041Z,6.90
2022-12-24T19:09:01.107Z,6.80
2022-12-24T19:11:26.583Z,6.90
2022-12-24T19:13:52.896Z,6.80
2022-12-24T19:16:18.341Z,6.80
2022-12-24T19:18:43.048Z,6.70
2022-12-24T19:21:08.742Z,6.70
2022-12-24T19:23:34.966Z,6.80
2022-12-24T19:26:00.219Z,6.80
2022-12-24T19:28:26.172Z,6.70
2022-12-24T19:30:50.696Z,6.70
2022-12-24T19:33:15.125Z,6.70
2022-12-24T19:35:39.778Z,6.70
2022-12-24T19:38:04.429Z,6.60
2022-12-24T19:40:30.868Z,6.60
2022-12-24T19:42:55.536Z,6.60
2022-12-24T19:45:20.119Z,6.60
2022-12-24T19:47:44.668Z,6.50
2022-12-24T19:50:09.852Z,6.50
2022-12-24T19:52:34.282Z,6.50
2022-12-24T19:54:59.041Z,6.50
2022-12-24T19:57:25.118Z,6.60
2022-12-24T19:59:49.743Z,6.60
2022-12-24T20:02:14.273Z,6.60
2022-12-24T20:04:38.936Z,6.70
2022-12-24T20:07:03.305Z,6.70
2022-12-24T20:09:28.179Z,6.70
2022-12-24T20:11:52.879Z,6.70
2022-12-24T20:14:18.644Z,6.70
2022-12-24T20:16:43.201Z,6.70
2022-12-24T20:19:09.383Z,6.70
2022-12-24T20:21:34.353Z,6.60
2022-12-24T20:23:58.813Z,6.60
2022-12-24T20:26:25.325Z,6.60
2022-12-24T20:28:50.173Z,6.50
2022-12-24T20:31:18.198Z,6.50
2022-12-24T20:33:43.830Z,6.50
2022-12-24T20:36:09.167Z,6.50
2022-12-24T20:38:33.636Z,6.40
2022-12-24T20:40:59.005Z,6.50
2022-12-24T20:43:24.636Z,6.50
2022-12-24T20:45:50.996Z,6.40
2022-12-24T20:48:17.381Z,6.40
2022-12-24T20:50:42.122Z,6.50
2022-12-24T20:53:06.647Z,6.40
2022-12-24T20:55:31.367Z,6.40
2022-12-24T20:57:55.720Z,6.40
2022-12-24T21:00:21.444Z,6.30
2022-12-24T21:02:46.625Z,6.30
2022-12-24T21:05:13.056Z,6.20
2022-12-24T21:07:39.057Z,6.20
2022-12-24T21:10:03.336Z,6.20
2022-12-24T21:12:45.467Z,6.10
2022-12-24T21:15:11.186Z,6.10
2022-12-24T21:17:35.461Z,6.10
2022-12-24T21:20:00.699Z,6.10
2022-12-24T21:22:26.463Z,6.10
2022-12-24T21:24:51.134Z,6.00
2022-12-24T21:27:15.528Z,6.10
2022-12-24T21:29:39.901Z,6.10
2022-12-24T21:32:04.292Z,6.10
2022-12-24T21:34:28.688Z,6.00
2022-12-24T21:36:53.045Z,5.90
2022-12-24T21:39:20.064Z,5.90
2022-12-24T21:41:44.501Z,5.90
2022-12-24T21:44:08.961Z,5.80
2022-12-24T21:46:33.389Z,5.80
2022-12-24T21:49:16.075Z,5.80
2022-12-24T21:51:41.379Z,5.70
2022-12-24T21:54:32.300Z,5.70
2022-12-24T21:57:17.820Z,5.80
2022-12-24T21:59:42.529Z,5.80
2022-12-24T22:02:07.433Z,5.80
2022-12-24T22:04:32.529Z,5.80
2022-12-24T22:07:14.240Z,5.70
2022-12-24T22:09:56.654Z,5.70
2022-12-24T22:12:22.549Z,5.70
2022-12-24T22:14:46.901Z,5.70
2022-12-24T22:17:11.329Z,5.70
2022-12-24T22:19:35.818Z,5.70
2022-12-24T22:22:00.259Z,5.70
2022-12-24T22:24:25.785Z,5.60
2022-12-24T22:26:50.875Z,5.60
2022-12-24T22:29:16.646Z,5.60
2022-12-24T22:31:41.097Z,5.60
2022-12-24T22:34:05.683Z,5.60
2022-12-24T22:36:30.000Z,5.60
2022-12-24T22:38:54.389Z,5.60
2022-12-24T22:41:18.987Z,5.60
2022-12-24T22:43:44.080Z,5.60
2022-12-24T22:46:12.091Z,5.60
2022-12-24T22:48:37.293Z,5.60
2022-12-24T22:51:01.701Z,5.60
2022-12-24T22:53:26.114Z,5.50
2022-12-24T22:55:56.641Z,5.50
2022-12-24T22:58:21.026Z,5.40
2022-12-24T23:00:47.475Z,5.40
2022-12-24T23:03:13.535Z,5.30
2022-12-24T23:05:38.348Z,5.30
2022-12-24T23:08:03.030Z,5.40
2022-12-24T23:10:27.637Z,5.40
2022-12-24T23:13:14.587Z,5.40
2022-12-24T23:15:40.447Z,5.40
2022-12-24T23:18:05.027Z,5.50
2022-12-24T23:20:31.335Z,5.50
2022-12-24T23:22:55.603Z,5.50
2022-12-24T23:25:20.518Z,5.50
2022-12-24T23:27:44.890Z,5.50
2022-12-24T23:30:11.130Z,5.50
2022-12-24T23:32:35.422Z,5.50
2022-12-24T23:34:59.887Z,5.50
2022-12-24T23:37:31.085Z,5.60
2022-12-24T23:39:59.341Z,5.60
2022-12-24T23:42:23.746Z,5.50
2022-12-24T23:44:48.133Z,5.50
2022-12-24T23:47:12.443Z,5.50
2022-12-24T23:49:36.901Z,5.50
2022-12-24T23:52:01.369Z,5.40
2022-12-24T23:54:27.158Z,5.40
2022-12-24T23:56:51.542Z,5.50
2022-12-24T23:59:16.103Z,5.50
